Center Hill Observed Data For Previous 48 Hours

Caption
Day and Hour Reservoir Elevation (behind dam)* Tailwater Elevation (below dam)* Average Hourly Discharge*
5/26/2017 1 AM CDT 631.83 483.83 3,480
5/26/2017 2 AM CDT 631.82 480.72 0
5/26/2017 3 AM CDT 631.82 479.22 0
5/26/2017 4 AM CDT 631.82 478.32 0
5/26/2017 5 AM CDT 631.82 477.72 0
5/26/2017 6 AM CDT 631.83 477.43 0
5/26/2017 7 AM CDT 631.83 477.33 0
5/26/2017 8 AM CDT 631.83 477.33 0
5/26/2017 9 AM CDT 631.83 477.33 0
5/26/2017 10 AM CDT 631.84 477.24 0
5/26/2017 11 AM CDT 631.84 477.24 0
5/26/2017 12 PM CDT 631.84 477.24 0
5/26/2017 1 PM CDT 631.84 477.24 0
5/26/2017 2 PM CDT 631.87 477.27 0
5/26/2017 3 PM CDT 631.87 481.77 3,420
5/26/2017 4 PM CDT 631.86 482.26 3,430
5/26/2017 5 PM CDT 631.84 484.84 7,020
5/26/2017 6 PM CDT 631.83 485.43 7,040
5/26/2017 7 PM CDT 631.79 485.69 7,080
5/26/2017 8 PM CDT 631.75 485.75 7,080
5/26/2017 9 PM CDT 631.72 485.72 7,080
5/26/2017 10 PM CDT 631.70 485.90 7,080
5/26/2017 11 PM CDT 631.66 485.96 7,100
5/27/2017 12 AM CDT 631.62 486.12 7,100
5/27/2017 1 AM CDT 631.61 484.01 3,490
5/27/2017 2 AM CDT 631.61 480.81 0
5/27/2017 3 AM CDT 631.60 479.30 0
5/27/2017 4 AM CDT 631.59 478.39 0
5/27/2017 5 AM CDT 631.59 477.79 0
5/27/2017 6 AM CDT 631.60 477.50 0
5/27/2017 7 AM CDT 631.60 477.30 0
5/27/2017 8 AM CDT 631.60 477.30 0
5/27/2017 9 AM CDT 631.61 477.31 0
5/27/2017 10 AM CDT 631.62 477.22 0
5/27/2017 11 AM CDT 631.62 477.22 0
5/27/2017 12 PM CDT 631.64 477.24 0
5/27/2017 1 PM CDT 631.64 477.24 0
5/27/2017 2 PM CDT 631.64 477.24 0
5/27/2017 3 PM CDT 631.62 481.92 3,430
5/27/2017 4 PM CDT 631.62 482.42 3,450
5/27/2017 5 PM CDT 631.63 482.63 3,450
5/27/2017 6 PM CDT 631.62 482.72 3,450
5/27/2017 7 PM CDT 631.61 482.70 3,450
5/27/2017 8 PM CDT 631.61 482.81 3,450
5/27/2017 9 PM CDT 631.62 482.92 3,460
5/27/2017 10 PM CDT 631.62 480.02 0
5/27/2017 11 PM CDT 631.68 479.08 0
5/28/2017 12 AM CDT 631.72 478.42 0

Elevations are in feet above sea level. Discharges are in cubic feet per second and are reported at the end of the hour.